sensor_id;sensor_type;location;lat;lon;timestamp;P1;durP1;ratioP1;P2;durP2;ratioP2
8159;SDS011;27404;52.398;9.646;2023-11-21T00:02:19;19.60;;;7.93;;
8159;SDS011;27404;52.398;9.646;2023-11-21T00:04:45;27.17;;;8.97;;
8159;SDS011;27404;52.398;9.646;2023-11-21T00:07:13;20.33;;;8.43;;
8159;SDS011;27404;52.398;9.646;2023-11-21T00:09:39;24.03;;;10.13;;
8159;SDS011;27404;52.398;9.646;2023-11-21T00:12:05;19.67;;;8.87;;
8159;SDS011;27404;52.398;9.646;2023-11-21T00:14:31;16.73;;;8.57;;
8159;SDS011;27404;52.398;9.646;2023-11-21T00:16:56;17.40;;;8.23;;
8159;SDS011;27404;52.398;9.646;2023-11-21T00:19:21;20.73;;;9.33;;
8159;SDS011;27404;52.398;9.646;2023-11-21T00:21:47;17.90;;;8.93;;
8159;SDS011;27404;52.398;9.646;2023-11-21T00:24:12;18.70;;;8.53;;
8159;SDS011;27404;52.398;9.646;2023-11-21T00:26:40;23.50;;;9.50;;
8159;SDS011;27404;52.398;9.646;2023-11-21T00:29:06;25.30;;;9.63;;
8159;SDS011;27404;52.398;9.646;2023-11-21T00:31:36;19.80;;;8.80;;
8159;SDS011;27404;52.398;9.646;2023-11-21T00:34:04;18.50;;;9.70;;
8159;SDS011;27404;52.398;9.646;2023-11-21T00:36:33;19.90;;;9.40;;
8159;SDS011;27404;52.398;9.646;2023-11-21T00:38:58;19.00;;;9.17;;
8159;SDS011;27404;52.398;9.646;2023-11-21T00:41:24;22.17;;;9.33;;
8159;SDS011;27404;52.398;9.646;2023-11-21T00:43:52;19.60;;;9.93;;
8159;SDS011;27404;52.398;9.646;2023-11-21T00:46:19;25.17;;;10.30;;
8159;SDS011;27404;52.398;9.646;2023-11-21T00:48:44;24.23;;;9.57;;
8159;SDS011;27404;52.398;9.646;2023-11-21T00:51:10;22.03;;;9.50;;
8159;SDS011;27404;52.398;9.646;2023-11-21T00:53:35;22.07;;;10.10;;
8159;SDS011;27404;52.398;9.646;2023-11-21T00:56:01;24.50;;;10.37;;
8159;SDS011;27404;52.398;9.646;2023-11-21T00:58:27;26.80;;;10.33;;
8159;SDS011;27404;52.398;9.646;2023-11-21T01:00:53;14.87;;;9.23;;
8159;SDS011;27404;52.398;9.646;2023-11-21T01:03:19;22.47;;;10.10;;
8159;SDS011;27404;52.398;9.646;2023-11-21T01:05:45;22.43;;;10.80;;
8159;SDS011;27404;52.398;9.646;2023-11-21T01:08:11;23.53;;;10.63;;
8159;SDS011;27404;52.398;9.646;2023-11-21T01:10:37;23.90;;;11.13;;
8159;SDS011;27404;52.398;9.646;2023-11-21T01:13:03;25.93;;;11.10;;
8159;SDS011;27404;52.398;9.646;2023-11-21T01:15:32;28.93;;;11.17;;
8159;SDS011;27404;52.398;9.646;2023-11-21T01:17:58;30.20;;;11.17;;
8159;SDS011;27404;52.398;9.646;2023-11-21T01:20:23;21.87;;;10.33;;
8159;SDS011;27404;52.398;9.646;2023-11-21T01:22:48;28.20;;;11.10;;
8159;SDS011;27404;52.398;9.646;2023-11-21T01:25:14;21.63;;;11.40;;
8159;SDS011;27404;52.398;9.646;2023-11-21T01:27:41;26.30;;;12.10;;
8159;SDS011;27404;52.398;9.646;2023-11-21T01:30:07;29.27;;;11.70;;
8159;SDS011;27404;52.398;9.646;2023-11-21T01:32:34;27.57;;;12.30;;
8159;SDS011;27404;52.398;9.646;2023-11-21T01:35:00;22.57;;;11.90;;
8159;SDS011;27404;52.398;9.646;2023-11-21T01:37:25;26.33;;;12.20;;
8159;SDS011;27404;52.398;9.646;2023-11-21T01:39:53;35.67;;;12.87;;
8159;SDS011;27404;52.398;9.646;2023-11-21T01:42:20;30.50;;;12.77;;
8159;SDS011;27404;52.398;9.646;2023-11-21T01:44:46;27.63;;;11.83;;
8159;SDS011;27404;52.398;9.646;2023-11-21T01:47:11;25.00;;;12.30;;
8159;SDS011;27404;52.398;9.646;2023-11-21T01:49:38;23.77;;;13.00;;
8159;SDS011;27404;52.398;9.646;2023-11-21T01:52:04;30.30;;;13.27;;
8159;SDS011;27404;52.398;9.646;2023-11-21T01:54:31;26.53;;;12.97;;
8159;SDS011;27404;52.398;9.646;2023-11-21T01:57:00;26.20;;;12.47;;
8159;SDS011;27404;52.398;9.646;2023-11-21T01:59:29;27.60;;;13.33;;
8159;SDS011;27404;52.398;9.646;2023-11-21T02:02:00;30.83;;;13.30;;
8159;SDS011;27404;52.398;9.646;2023-11-21T02:04:25;36.57;;;13.73;;
8159;SDS011;27404;52.398;9.646;2023-11-21T02:06:51;29.70;;;14.97;;
8159;SDS011;27404;52.398;9.646;2023-11-21T02:09:16;26.87;;;13.07;;
8159;SDS011;27404;52.398;9.646;2023-11-21T02:11:43;27.10;;;13.53;;
8159;SDS011;27404;52.398;9.646;2023-11-21T02:14:09;29.10;;;14.13;;
8159;SDS011;27404;52.398;9.646;2023-11-21T02:16:35;25.43;;;12.17;;
8159;SDS011;27404;52.398;9.646;2023-11-21T02:19:02;29.50;;;13.67;;
8159;SDS011;27404;52.398;9.646;2023-11-21T02:21:31;26.17;;;14.30;;
8159;SDS011;27404;52.398;9.646;2023-11-21T02:23:57;25.00;;;13.43;;
8159;SDS011;27404;52.398;9.646;2023-11-21T02:26:23;31.77;;;14.00;;
8159;SDS011;27404;52.398;9.646;2023-11-21T02:28:51;33.53;;;14.73;;
8159;SDS011;27404;52.398;9.646;2023-11-21T02:31:18;27.53;;;13.07;;
8159;SDS011;27404;52.398;9.646;2023-11-21T02:33:44;30.90;;;15.33;;
8159;SDS011;27404;52.398;9.646;2023-11-21T02:36:09;28.67;;;13.03;;
8159;SDS011;27404;52.398;9.646;2023-11-21T02:38:35;25.20;;;12.90;;
8159;SDS011;27404;52.398;9.646;2023-11-21T02:41:00;24.87;;;13.20;;
8159;SDS011;27404;52.398;9.646;2023-11-21T02:43:26;25.27;;;12.90;;
8159;SDS011;27404;52.398;9.646;2023-11-21T02:45:51;28.83;;;13.10;;
8159;SDS011;27404;52.398;9.646;2023-11-21T02:48:17;27.57;;;14.27;;
8159;SDS011;27404;52.398;9.646;2023-11-21T02:50:42;31.83;;;14.47;;
8159;SDS011;27404;52.398;9.646;2023-11-21T02:53:08;33.13;;;13.80;;
8159;SDS011;27404;52.398;9.646;2023-11-21T02:55:35;31.90;;;13.77;;
8159;SDS011;27404;52.398;9.646;2023-11-21T02:58:01;34.50;;;15.43;;
8159;SDS011;27404;52.398;9.646;2023-11-21T03:00:28;31.93;;;14.53;;
8159;SDS011;27404;52.398;9.646;2023-11-21T03:02:55;34.17;;;14.87;;
8159;SDS011;27404;52.398;9.646;2023-11-21T03:05:21;31.80;;;13.93;;
8159;SDS011;27404;52.398;9.646;2023-11-21T03:07:47;31.13;;;14.13;;
8159;SDS011;27404;52.398;9.646;2023-11-21T03:10:12;29.63;;;14.80;;
8159;SDS011;27404;52.398;9.646;2023-11-21T03:12:38;39.17;;;16.57;;
8159;SDS011;27404;52.398;9.646;2023-11-21T03:15:05;36.37;;;16.33;;
8159;SDS011;27404;52.398;9.646;2023-11-21T03:17:31;35.30;;;15.57;;
8159;SDS011;27404;52.398;9.646;2023-11-21T03:19:58;36.00;;;16.20;;
8159;SDS011;27404;52.398;9.646;2023-11-21T03:22:24;36.60;;;16.73;;
8159;SDS011;27404;52.398;9.646;2023-11-21T03:24:50;37.87;;;16.47;;
8159;SDS011;27404;52.398;9.646;2023-11-21T03:27:15;36.37;;;16.47;;
8159;SDS011;27404;52.398;9.646;2023-11-21T03:29:41;39.90;;;17.53;;
8159;SDS011;27404;52.398;9.646;2023-11-21T03:32:07;39.37;;;17.17;;
8159;SDS011;27404;52.398;9.646;2023-11-21T03:34:32;37.43;;;18.33;;
8159;SDS011;27404;52.398;9.646;2023-11-21T03:36:57;36.53;;;16.80;;
8159;SDS011;27404;52.398;9.646;2023-11-21T03:39:23;34.47;;;15.63;;
8159;SDS011;27404;52.398;9.646;2023-11-21T03:41:50;41.67;;;17.67;;
8159;SDS011;27404;52.398;9.646;2023-11-21T03:44:17;35.93;;;17.07;;
8159;SDS011;27404;52.398;9.646;2023-11-21T03:46:43;36.87;;;15.67;;
8159;SDS011;27404;52.398;9.646;2023-11-21T03:49:09;34.30;;;17.37;;
8159;SDS011;27404;52.398;9.646;2023-11-21T03:51:36;37.70;;;17.23;;
8159;SDS011;27404;52.398;9.646;2023-11-21T03:54:02;43.73;;;17.50;;
8159;SDS011;27404;52.398;9.646;2023-11-21T03:56:28;45.03;;;18.77;;
8159;SDS011;27404;52.398;9.646;2023-11-21T03:58:53;43.23;;;18.93;;
8159;SDS011;27404;52.398;9.646;2023-11-21T04:01:20;45.53;;;18.43;;
8159;SDS011;27404;52.398;9.646;2023-11-21T04:03:47;44.00;;;19.10;;
8159;SDS011;27404;52.398;9.646;2023-11-21T04:06:13;47.40;;;19.47;;
8159;SDS011;27404;52.398;9.646;2023-11-21T04:08:39;47.30;;;19.67;;
8159;SDS011;27404;52.398;9.646;2023-11-21T04:11:04;48.60;;;18.83;;
8159;SDS011;27404;52.398;9.646;2023-11-21T04:13:30;46.17;;;18.67;;
8159;SDS011;27404;52.398;9.646;2023-11-21T04:15:55;50.77;;;19.17;;
8159;SDS011;27404;52.398;9.646;2023-11-21T04:18:21;48.43;;;19.83;;
8159;SDS011;27404;52.398;9.646;2023-11-21T04:20:48;45.97;;;19.13;;
8159;SDS011;27404;52.398;9.646;2023-11-21T04:23:14;44.53;;;18.43;;
8159;SDS011;27404;52.398;9.646;2023-11-21T04:25:40;47.27;;;18.03;;
8159;SDS011;27404;52.398;9.646;2023-11-21T04:28:05;43.37;;;18.67;;
8159;SDS011;27404;52.398;9.646;2023-11-21T04:30:31;51.90;;;21.27;;
8159;SDS011;27404;52.398;9.646;2023-11-21T04:32:57;40.57;;;17.93;;
8159;SDS011;27404;52.398;9.646;2023-11-21T04:35:23;45.87;;;19.07;;
8159;SDS011;27404;52.398;9.646;2023-11-21T04:37:48;38.73;;;18.83;;
8159;SDS011;27404;52.398;9.646;2023-11-21T04:40:16;51.43;;;19.43;;
8159;SDS011;27404;52.398;9.646;2023-11-21T04:42:42;46.20;;;19.27;;
8159;SDS011;27404;52.398;9.646;2023-11-21T04:45:07;40.83;;;16.70;;
8159;SDS011;27404;52.398;9.646;2023-11-21T04:47:34;41.23;;;18.77;;
8159;SDS011;27404;52.398;9.646;2023-11-21T04:50:00;44.47;;;19.03;;
8159;SDS011;27404;52.398;9.646;2023-11-21T04:52:26;40.13;;;17.87;;
8159;SDS011;27404;52.398;9.646;2023-11-21T04:54:51;38.27;;;16.77;;
8159;SDS011;27404;52.398;9.646;2023-11-21T04:57:19;42.30;;;17.63;;
8159;SDS011;27404;52.398;9.646;2023-11-21T04:59:45;42.33;;;16.60;;
8159;SDS011;27404;52.398;9.646;2023-11-21T05:02:10;39.67;;;17.97;;
8159;SDS011;27404;52.398;9.646;2023-11-21T05:04:37;39.00;;;17.17;;
8159;SDS011;27404;52.398;9.646;2023-11-21T05:07:03;30.43;;;15.87;;
8159;SDS011;27404;52.398;9.646;2023-11-21T05:09:28;32.23;;;16.33;;
8159;SDS011;27404;52.398;9.646;2023-11-21T05:11:56;38.47;;;15.73;;
8159;SDS011;27404;52.398;9.646;2023-11-21T05:14:22;35.13;;;15.67;;
8159;SDS011;27404;52.398;9.646;2023-11-21T05:16:48;37.30;;;16.20;;
8159;SDS011;27404;52.398;9.646;2023-11-21T05:19:13;28.77;;;12.97;;
8159;SDS011;27404;52.398;9.646;2023-11-21T05:21:39;30.53;;;14.40;;
8159;SDS011;27404;52.398;9.646;2023-11-21T05:24:04;28.13;;;13.63;;
8159;SDS011;27404;52.398;9.646;2023-11-21T05:26:30;28.83;;;13.40;;
8159;SDS011;27404;52.398;9.646;2023-11-21T05:28:56;28.37;;;13.43;;
8159;SDS011;27404;52.398;9.646;2023-11-21T05:31:21;27.23;;;12.87;;
8159;SDS011;27404;52.398;9.646;2023-11-21T05:33:47;28.10;;;12.03;;
8159;SDS011;27404;52.398;9.646;2023-11-21T05:36:12;24.03;;;11.83;;
8159;SDS011;27404;52.398;9.646;2023-11-21T05:38:38;28.40;;;12.20;;
8159;SDS011;27404;52.398;9.646;2023-11-21T05:41:03;23.30;;;11.90;;
8159;SDS011;27404;52.398;9.646;2023-11-21T05:43:29;27.87;;;12.20;;
8159;SDS011;27404;52.398;9.646;2023-11-21T05:45:57;28.37;;;13.73;;
8159;SDS011;27404;52.398;9.646;2023-11-21T05:48:22;23.27;;;11.53;;
8159;SDS011;27404;52.398;9.646;2023-11-21T05:50:48;18.77;;;9.97;;
8159;SDS011;27404;52.398;9.646;2023-11-21T05:53:15;24.53;;;10.73;;
8159;SDS011;27404;52.398;9.646;2023-11-21T05:55:41;20.97;;;9.70;;
8159;SDS011;27404;52.398;9.646;2023-11-21T05:58:07;21.00;;;10.87;;
8159;SDS011;27404;52.398;9.646;2023-11-21T06:00:33;19.20;;;9.77;;
8159;SDS011;27404;52.398;9.646;2023-11-21T06:02:59;19.40;;;9.80;;
8159;SDS011;27404;52.398;9.646;2023-11-21T06:05:24;22.50;;;10.70;;
8159;SDS011;27404;52.398;9.646;2023-11-21T06:07:51;20.53;;;10.67;;
8159;SDS011;27404;52.398;9.646;2023-11-21T06:10:19;19.47;;;9.93;;
8159;SDS011;27404;52.398;9.646;2023-11-21T06:12:48;14.83;;;8.30;;
8159;SDS011;27404;52.398;9.646;2023-11-21T06:15:14;17.27;;;8.97;;
8159;SDS011;27404;52.398;9.646;2023-11-21T06:17:41;17.20;;;9.63;;
8159;SDS011;27404;52.398;9.646;2023-11-21T06:20:08;16.47;;;9.53;;
8159;SDS011;27404;52.398;9.646;2023-11-21T06:22:36;16.73;;;8.97;;
8159;SDS011;27404;52.398;9.646;2023-11-21T06:25:03;17.50;;;9.03;;
8159;SDS011;27404;52.398;9.646;2023-11-21T06:27:32;19.23;;;9.63;;
8159;SDS011;27404;52.398;9.646;2023-11-21T06:29:59;18.43;;;10.03;;
8159;SDS011;27404;52.398;9.646;2023-11-21T06:32:25;18.67;;;9.60;;
8159;SDS011;27404;52.398;9.646;2023-11-21T06:34:51;17.30;;;9.80;;
8159;SDS011;27404;52.398;9.646;2023-11-21T06:37:19;20.20;;;10.53;;
8159;SDS011;27404;52.398;9.646;2023-11-21T06:39:48;20.57;;;10.37;;
8159;SDS011;27404;52.398;9.646;2023-11-21T06:42:14;23.33;;;10.30;;
8159;SDS011;27404;52.398;9.646;2023-11-21T06:44:40;18.73;;;10.00;;
8159;SDS011;27404;52.398;9.646;2023-11-21T06:47:06;16.57;;;8.87;;
8159;SDS011;27404;52.398;9.646;2023-11-21T06:49:32;16.27;;;8.93;;
8159;SDS011;27404;52.398;9.646;2023-11-21T06:51:58;13.97;;;6.87;;
8159;SDS011;27404;52.398;9.646;2023-11-21T06:54:24;12.13;;;5.97;;
8159;SDS011;27404;52.398;9.646;2023-11-21T06:56:50;8.37;;;5.80;;
8159;SDS011;27404;52.398;9.646;2023-11-21T06:59:15;9.30;;;5.20;;
8159;SDS011;27404;52.398;9.646;2023-11-21T07:01:41;9.50;;;4.87;;
8159;SDS011;27404;52.398;9.646;2023-11-21T07:04:06;8.93;;;4.70;;
8159;SDS011;27404;52.398;9.646;2023-11-21T07:06:33;7.57;;;5.03;;
8159;SDS011;27404;52.398;9.646;2023-11-21T07:08:59;7.83;;;4.80;;
8159;SDS011;27404;52.398;9.646;2023-11-21T07:11:26;9.40;;;4.90;;
8159;SDS011;27404;52.398;9.646;2023-11-21T07:13:52;8.17;;;5.00;;
8159;SDS011;27404;52.398;9.646;2023-11-21T07:16:18;10.27;;;5.07;;
8159;SDS011;27404;52.398;9.646;2023-11-21T07:18:44;9.93;;;5.67;;
8159;SDS011;27404;52.398;9.646;2023-11-21T07:21:10;9.87;;;5.17;;
8159;SDS011;27404;52.398;9.646;2023-11-21T07:23:37;9.17;;;5.03;;
8159;SDS011;27404;52.398;9.646;2023-11-21T07:26:03;8.20;;;5.60;;
8159;SDS011;27404;52.398;9.646;2023-11-21T07:28:33;10.20;;;5.07;;
8159;SDS011;27404;52.398;9.646;2023-11-21T07:30:59;10.23;;;5.50;;
8159;SDS011;27404;52.398;9.646;2023-11-21T07:33:25;8.97;;;5.40;;
8159;SDS011;27404;52.398;9.646;2023-11-21T07:35:51;8.57;;;5.13;;
8159;SDS011;27404;52.398;9.646;2023-11-21T07:38:17;10.23;;;5.67;;
8159;SDS011;27404;52.398;9.646;2023-11-21T07:40:43;9.80;;;5.83;;
8159;SDS011;27404;52.398;9.646;2023-11-21T07:43:08;10.93;;;5.80;;
8159;SDS011;27404;52.398;9.646;2023-11-21T07:45:34;9.00;;;5.87;;
8159;SDS011;27404;52.398;9.646;2023-11-21T07:47:59;10.10;;;6.73;;
8159;SDS011;27404;52.398;9.646;2023-11-21T07:50:28;12.73;;;6.77;;
8159;SDS011;27404;52.398;9.646;2023-11-21T07:52:54;10.20;;;6.47;;
8159;SDS011;27404;52.398;9.646;2023-11-21T07:55:20;10.60;;;6.60;;
8159;SDS011;27404;52.398;9.646;2023-11-21T07:57:45;9.83;;;6.50;;
8159;SDS011;27404;52.398;9.646;2023-11-21T08:00:11;12.83;;;7.60;;
8159;SDS011;27404;52.398;9.646;2023-11-21T08:02:38;11.07;;;7.27;;
8159;SDS011;27404;52.398;9.646;2023-11-21T08:05:07;14.03;;;7.50;;
8159;SDS011;27404;52.398;9.646;2023-11-21T08:07:33;12.13;;;7.47;;
8159;SDS011;27404;52.398;9.646;2023-11-21T08:09:58;14.47;;;8.13;;
8159;SDS011;27404;52.398;9.646;2023-11-21T08:12:24;17.30;;;9.63;;
8159;SDS011;27404;52.398;9.646;2023-11-21T08:14:51;14.47;;;9.30;;
8159;SDS011;27404;52.398;9.646;2023-11-21T08:17:16;16.73;;;9.63;;
8159;SDS011;27404;52.398;9.646;2023-11-21T08:19:42;17.27;;;9.20;;
8159;SDS011;27404;52.398;9.646;2023-11-21T08:22:07;14.83;;;8.70;;
8159;SDS011;27404;52.398;9.646;2023-11-21T08:24:33;15.03;;;8.60;;
8159;SDS011;27404;52.398;9.646;2023-11-21T08:26:58;15.03;;;8.97;;
8159;SDS011;27404;52.398;9.646;2023-11-21T08:29:24;17.23;;;9.70;;
8159;SDS011;27404;52.398;9.646;2023-11-21T08:31:49;16.10;;;9.17;;
8159;SDS011;27404;52.398;9.646;2023-11-21T08:34:15;16.50;;;10.00;;
8159;SDS011;27404;52.398;9.646;2023-11-21T08:36:43;19.70;;;9.73;;
8159;SDS011;27404;52.398;9.646;2023-11-21T08:39:09;16.10;;;9.97;;
8159;SDS011;27404;52.398;9.646;2023-11-21T08:41:35;19.10;;;10.30;;
8159;SDS011;27404;52.398;9.646;2023-11-21T08:44:01;15.97;;;10.10;;
8159;SDS011;27404;52.398;9.646;2023-11-21T08:46:32;16.27;;;9.60;;
8159;SDS011;27404;52.398;9.646;2023-11-21T08:48:59;15.77;;;8.97;;
8159;SDS011;27404;52.398;9.646;2023-11-21T08:51:26;16.50;;;10.10;;
8159;SDS011;27404;52.398;9.646;2023-11-21T08:53:51;13.60;;;8.80;;
8159;SDS011;27404;52.398;9.646;2023-11-21T08:56:18;14.97;;;9.23;;
8159;SDS011;27404;52.398;9.646;2023-11-21T08:58:45;13.53;;;9.03;;
8159;SDS011;27404;52.398;9.646;2023-11-21T09:01:12;13.40;;;8.47;;
8159;SDS011;27404;52.398;9.646;2023-11-21T09:03:38;13.63;;;8.33;;
8159;SDS011;27404;52.398;9.646;2023-11-21T09:06:03;13.67;;;8.97;;
8159;SDS011;27404;52.398;9.646;2023-11-21T09:08:29;12.57;;;8.67;;
8159;SDS011;27404;52.398;9.646;2023-11-21T09:10:55;14.33;;;8.43;;
8159;SDS011;27404;52.398;9.646;2023-11-21T09:13:20;13.03;;;8.10;;
8159;SDS011;27404;52.398;9.646;2023-11-21T09:15:46;15.20;;;9.37;;
8159;SDS011;27404;52.398;9.646;2023-11-21T09:18:14;12.37;;;8.50;;
8159;SDS011;27404;52.398;9.646;2023-11-21T09:20:42;14.13;;;8.90;;
8159;SDS011;27404;52.398;9.646;2023-11-21T09:23:09;14.67;;;8.60;;
8159;SDS011;27404;52.398;9.646;2023-11-21T09:25:35;12.87;;;7.90;;
8159;SDS011;27404;52.398;9.646;2023-11-21T09:28:02;12.50;;;7.83;;
8159;SDS011;27404;52.398;9.646;2023-11-21T09:30:32;13.37;;;7.40;;
8159;SDS011;27404;52.398;9.646;2023-11-21T09:32:58;13.23;;;7.87;;
8159;SDS011;27404;52.398;9.646;2023-11-21T09:35:24;11.37;;;7.23;;
8159;SDS011;27404;52.398;9.646;2023-11-21T09:37:50;11.93;;;7.87;;
8159;SDS011;27404;52.398;9.646;2023-11-21T09:40:17;10.17;;;6.83;;
8159;SDS011;27404;52.398;9.646;2023-11-21T09:42:56;10.80;;;7.13;;
8159;SDS011;27404;52.398;9.646;2023-11-21T09:47:59;13.03;;;8.20;;
8159;SDS011;27404;52.398;9.646;2023-11-21T09:50:26;11.90;;;7.53;;
8159;SDS011;27404;52.398;9.646;2023-11-21T09:52:57;11.40;;;7.27;;
8159;SDS011;27404;52.398;9.646;2023-11-21T09:55:29;9.80;;;6.43;;
8159;SDS011;27404;52.398;9.646;2023-11-21T09:58:01;11.30;;;7.37;;
8159;SDS011;27404;52.398;9.646;2023-11-21T10:00:28;11.13;;;7.07;;
8159;SDS011;27404;52.398;9.646;2023-11-21T10:02:58;10.30;;;6.93;;
8159;SDS011;27404;52.398;9.646;2023-11-21T10:05:24;11.00;;;6.87;;
8159;SDS011;27404;52.398;9.646;2023-11-21T10:07:50;11.20;;;6.83;;
8159;SDS011;27404;52.398;9.646;2023-11-21T10:10:17;12.03;;;6.43;;
8159;SDS011;27404;52.398;9.646;2023-11-21T10:12:46;9.83;;;5.67;;
8159;SDS011;27404;52.398;9.646;2023-11-21T10:15:18;8.63;;;5.87;;
8159;SDS011;27404;52.398;9.646;2023-11-21T10:17:48;12.53;;;6.13;;
8159;SDS011;27404;52.398;9.646;2023-11-21T10:20:14;9.00;;;5.87;;
8159;SDS011;27404;52.398;9.646;2023-11-21T10:22:40;9.37;;;5.33;;
8159;SDS011;27404;52.398;9.646;2023-11-21T10:25:10;10.77;;;6.50;;
8159;SDS011;27404;52.398;9.646;2023-11-21T10:27:36;8.83;;;5.63;;
8159;SDS011;27404;52.398;9.646;2023-11-21T10:30:04;7.60;;;5.23;;
8159;SDS011;27404;52.398;9.646;2023-11-21T10:32:30;8.90;;;5.37;;
8159;SDS011;27404;52.398;9.646;2023-11-21T10:34:59;8.63;;;4.90;;
8159;SDS011;27404;52.398;9.646;2023-11-21T10:37:34;7.00;;;5.10;;
8159;SDS011;27404;52.398;9.646;2023-11-21T10:40:01;7.93;;;5.33;;
8159;SDS011;27404;52.398;9.646;2023-11-21T10:42:27;8.33;;;4.90;;
8159;SDS011;27404;52.398;9.646;2023-11-21T10:44:53;6.40;;;4.40;;
8159;SDS011;27404;52.398;9.646;2023-11-21T10:47:19;9.23;;;5.20;;
8159;SDS011;27404;52.398;9.646;2023-11-21T10:49:49;7.30;;;5.10;;
8159;SDS011;27404;52.398;9.646;2023-11-21T10:52:15;7.57;;;4.93;;
8159;SDS011;27404;52.398;9.646;2023-11-21T10:54:42;8.97;;;5.00;;
8159;SDS011;27404;52.398;9.646;2023-11-21T10:57:08;10.27;;;5.40;;
8159;SDS011;27404;52.398;9.646;2023-11-21T10:59:36;7.10;;;5.03;;
8159;SDS011;27404;52.398;9.646;2023-11-21T11:04:50;7.97;;;4.90;;
8159;SDS011;27404;52.398;9.646;2023-11-21T11:07:17;6.17;;;4.50;;
8159;SDS011;27404;52.398;9.646;2023-11-21T11:09:44;6.63;;;4.70;;
8159;SDS011;27404;52.398;9.646;2023-11-21T11:12:12;6.87;;;4.87;;
8159;SDS011;27404;52.398;9.646;2023-11-21T11:14:40;8.23;;;5.13;;
8159;SDS011;27404;52.398;9.646;2023-11-21T11:17:08;8.77;;;5.03;;
8159;SDS011;27404;52.398;9.646;2023-11-21T11:19:35;7.77;;;4.40;;
8159;SDS011;27404;52.398;9.646;2023-11-21T11:30:41;6.23;;;4.40;;
8159;SDS011;27404;52.398;9.646;2023-11-21T11:36:36;6.60;;;4.33;;
8159;SDS011;27404;52.398;9.646;2023-11-21T11:39:41;6.50;;;4.37;;
8159;SDS011;27404;52.398;9.646;2023-11-21T11:42:06;7.63;;;4.17;;
8159;SDS011;27404;52.398;9.646;2023-11-21T11:47:16;6.30;;;4.27;;
8159;SDS011;27404;52.398;9.646;2023-11-21T11:52:32;5.57;;;4.10;;
8159;SDS011;27404;52.398;9.646;2023-11-21T11:55:01;6.70;;;4.00;;
8159;SDS011;27404;52.398;9.646;2023-11-21T11:57:30;6.47;;;4.30;;
8159;SDS011;27404;52.398;9.646;2023-11-21T12:02:53;6.40;;;3.77;;
8159;SDS011;27404;52.398;9.646;2023-11-21T12:05:21;7.30;;;4.10;;
8159;SDS011;27404;52.398;9.646;2023-11-21T12:07:55;8.93;;;4.43;;
8159;SDS011;27404;52.398;9.646;2023-11-21T12:10:29;6.67;;;3.97;;
8159;SDS011;27404;52.398;9.646;2023-11-21T12:15:35;6.73;;;3.80;;
8159;SDS011;27404;52.398;9.646;2023-11-21T12:18:01;6.27;;;3.83;;
8159;SDS011;27404;52.398;9.646;2023-11-21T12:20:28;6.30;;;4.03;;
8159;SDS011;27404;52.398;9.646;2023-11-21T12:22:59;6.53;;;4.20;;
8159;SDS011;27404;52.398;9.646;2023-11-21T12:25:26;6.80;;;4.43;;
8159;SDS011;27404;52.398;9.646;2023-11-21T12:27:59;6.07;;;4.27;;
8159;SDS011;27404;52.398;9.646;2023-11-21T12:30:26;6.27;;;4.10;;
8159;SDS011;27404;52.398;9.646;2023-11-21T12:33:01;6.97;;;4.60;;
8159;SDS011;27404;52.398;9.646;2023-11-21T12:35:31;8.57;;;4.33;;
8159;SDS011;27404;52.398;9.646;2023-11-21T12:38:00;6.47;;;4.27;;
8159;SDS011;27404;52.398;9.646;2023-11-21T12:40:35;6.43;;;4.40;;
8159;SDS011;27404;52.398;9.646;2023-11-21T12:43:01;7.67;;;4.90;;
8159;SDS011;27404;52.398;9.646;2023-11-21T12:45:29;7.73;;;4.53;;
8159;SDS011;27404;52.398;9.646;2023-11-21T12:50:28;6.77;;;4.77;;
8159;SDS011;27404;52.398;9.646;2023-11-21T12:53:19;6.93;;;4.97;;
8159;SDS011;27404;52.398;9.646;2023-11-21T12:55:44;7.87;;;5.30;;
8159;SDS011;27404;52.398;9.646;2023-11-21T12:58:15;7.50;;;4.60;;
8159;SDS011;27404;52.398;9.646;2023-11-21T13:00:47;7.30;;;4.77;;
8159;SDS011;27404;52.398;9.646;2023-11-21T13:03:14;8.37;;;4.83;;
8159;SDS011;27404;52.398;9.646;2023-11-21T13:05:43;7.40;;;4.70;;
8159;SDS011;27404;52.398;9.646;2023-11-21T13:08:11;6.23;;;4.63;;
8159;SDS011;27404;52.398;9.646;2023-11-21T13:10:39;8.57;;;5.23;;
8159;SDS011;27404;52.398;9.646;2023-11-21T13:13:07;7.53;;;4.50;;
8159;SDS011;27404;52.398;9.646;2023-11-21T13:15:34;6.57;;;4.93;;
8159;SDS011;27404;52.398;9.646;2023-11-21T13:18:26;6.80;;;4.40;;
8159;SDS011;27404;52.398;9.646;2023-11-21T13:20:52;7.23;;;4.77;;
8159;SDS011;27404;52.398;9.646;2023-11-21T13:23:20;6.43;;;4.33;;
8159;SDS011;27404;52.398;9.646;2023-11-21T13:25:45;6.67;;;4.20;;
8159;SDS011;27404;52.398;9.646;2023-11-21T13:28:12;6.77;;;4.73;;
8159;SDS011;27404;52.398;9.646;2023-11-21T13:30:40;6.03;;;4.30;;
8159;SDS011;27404;52.398;9.646;2023-11-21T13:33:07;5.87;;;4.23;;
8159;SDS011;27404;52.398;9.646;2023-11-21T13:35:35;6.20;;;4.70;;
8159;SDS011;27404;52.398;9.646;2023-11-21T13:38:08;7.10;;;4.00;;
8159;SDS011;27404;52.398;9.646;2023-11-21T13:40:35;9.27;;;4.97;;
8159;SDS011;27404;52.398;9.646;2023-11-21T13:43:10;10.03;;;5.20;;
8159;SDS011;27404;52.398;9.646;2023-11-21T13:45:37;8.80;;;5.60;;
8159;SDS011;27404;52.398;9.646;2023-11-21T13:48:04;7.77;;;4.90;;
8159;SDS011;27404;52.398;9.646;2023-11-21T13:50:35;12.20;;;5.17;;
8159;SDS011;27404;52.398;9.646;2023-11-21T13:53:04;5.80;;;4.00;;
8159;SDS011;27404;52.398;9.646;2023-11-21T13:55:45;5.37;;;3.97;;
8159;SDS011;27404;52.398;9.646;2023-11-21T13:58:11;5.87;;;4.13;;
8159;SDS011;27404;52.398;9.646;2023-11-21T14:00:42;4.83;;;3.90;;
8159;SDS011;27404;52.398;9.646;2023-11-21T14:03:14;7.63;;;3.87;;
8159;SDS011;27404;52.398;9.646;2023-11-21T14:05:46;8.30;;;4.37;;
8159;SDS011;27404;52.398;9.646;2023-11-21T14:08:18;7.27;;;4.07;;
8159;SDS011;27404;52.398;9.646;2023-11-21T14:10:46;5.80;;;4.07;;
8159;SDS011;27404;52.398;9.646;2023-11-21T14:13:18;6.30;;;3.60;;
8159;SDS011;27404;52.398;9.646;2023-11-21T14:15:44;6.60;;;3.80;;
8159;SDS011;27404;52.398;9.646;2023-11-21T14:18:12;5.83;;;4.13;;
8159;SDS011;27404;52.398;9.646;2023-11-21T14:20:42;6.93;;;4.50;;
8159;SDS011;27404;52.398;9.646;2023-11-21T14:23:09;6.30;;;3.93;;
8159;SDS011;27404;52.398;9.646;2023-11-21T14:25:35;6.00;;;3.80;;
8159;SDS011;27404;52.398;9.646;2023-11-21T14:28:03;6.03;;;3.83;;
8159;SDS011;27404;52.398;9.646;2023-11-21T14:30:29;6.37;;;3.90;;
8159;SDS011;27404;52.398;9.646;2023-11-21T14:33:01;5.13;;;3.80;;
8159;SDS011;27404;52.398;9.646;2023-11-21T14:35:29;6.30;;;4.47;;
8159;SDS011;27404;52.398;9.646;2023-11-21T14:37:57;5.60;;;3.87;;
8159;SDS011;27404;52.398;9.646;2023-11-21T14:40:24;6.93;;;4.43;;
8159;SDS011;27404;52.398;9.646;2023-11-21T14:42:50;5.80;;;4.20;;
8159;SDS011;27404;52.398;9.646;2023-11-21T14:45:20;6.40;;;4.10;;
8159;SDS011;27404;52.398;9.646;2023-11-21T14:47:47;8.00;;;4.40;;
8159;SDS011;27404;52.398;9.646;2023-11-21T14:50:21;6.23;;;3.37;;
8159;SDS011;27404;52.398;9.646;2023-11-21T14:53:05;5.77;;;3.30;;
8159;SDS011;27404;52.398;9.646;2023-11-21T14:55:34;7.70;;;3.70;;
8159;SDS011;27404;52.398;9.646;2023-11-21T14:58:14;6.77;;;3.90;;
8159;SDS011;27404;52.398;9.646;2023-11-21T15:00:45;5.60;;;4.17;;
8159;SDS011;27404;52.398;9.646;2023-11-21T15:03:11;5.80;;;3.93;;
8159;SDS011;27404;52.398;9.646;2023-11-21T15:05:57;5.43;;;3.90;;
8159;SDS011;27404;52.398;9.646;2023-11-21T15:08:24;6.80;;;4.00;;
8159;SDS011;27404;52.398;9.646;2023-11-21T15:10:57;7.73;;;3.93;;
8159;SDS011;27404;52.398;9.646;2023-11-21T15:13:23;7.00;;;4.53;;
8159;SDS011;27404;52.398;9.646;2023-11-21T15:15:51;7.40;;;4.63;;
8159;SDS011;27404;52.398;9.646;2023-11-21T15:18:19;6.60;;;4.53;;
8159;SDS011;27404;52.398;9.646;2023-11-21T15:20:45;7.07;;;4.47;;